createdAt,value
2022-11-07T00:00:10.877Z,8.13
2022-11-07T00:02:37.321Z,8.12
2022-11-07T00:05:03.897Z,8.08
2022-11-07T00:07:30.245Z,8.10
2022-11-07T00:09:56.680Z,8.08
2022-11-07T00:12:22.988Z,8.11
2022-11-07T00:14:49.429Z,8.12
2022-11-07T00:17:15.725Z,8.11
2022-11-07T00:19:42.066Z,8.14
2022-11-07T00:22:08.943Z,8.10
2022-11-07T00:24:35.226Z,8.11
2022-11-07T00:27:01.741Z,8.13
2022-11-07T00:29:28.113Z,8.16
2022-11-07T00:31:54.539Z,8.11
2022-11-07T00:34:20.855Z,8.15
2022-11-07T00:36:47.140Z,8.18
2022-11-07T00:39:13.471Z,8.17
2022-11-07T00:41:39.828Z,8.18
2022-11-07T00:44:06.190Z,8.22
2022-11-07T00:46:32.499Z,8.26
2022-11-07T00:48:58.867Z,8.28
2022-11-07T00:51:27.040Z,8.32
2022-11-07T00:53:53.664Z,8.35
2022-11-07T00:56:22.824Z,8.36
2022-11-07T00:58:49.144Z,8.41
2022-11-07T01:01:19.959Z,8.41
2022-11-07T01:04:05.773Z,8.46
2022-11-07T01:06:34.225Z,8.42
2022-11-07T01:09:00.819Z,8.43
2022-11-07T01:11:29.259Z,8.46
2022-11-07T01:14:00.251Z,8.55
2022-11-07T01:16:27.811Z,8.47
2022-11-07T01:18:54.535Z,8.49
2022-11-07T01:21:21.416Z,8.53
2022-11-07T01:23:48.256Z,8.60
2022-11-07T01:26:15.425Z,8.56
2022-11-07T01:28:41.957Z,8.60
2022-11-07T01:31:11.732Z,8.63
2022-11-07T01:33:38.710Z,8.61
2022-11-07T01:36:11.335Z,8.66
2022-11-07T01:38:39.445Z,8.69
2022-11-07T01:41:22.524Z,8.73
2022-11-07T01:43:56.444Z,8.77
2022-11-07T01:46:43.863Z,8.81
2022-11-07T01:49:25.847Z,8.82
2022-11-07T01:52:07.137Z,8.89
2022-11-07T01:54:38.953Z,8.92
2022-11-07T01:57:11.048Z,8.97
2022-11-07T01:59:40.017Z,9.01
2022-11-07T02:02:07.287Z,9.02
2022-11-07T02:04:33.682Z,9.03
2022-11-07T02:07:10.197Z,9.00
2022-11-07T02:09:36.709Z,9.04
2022-11-07T02:12:03.236Z,9.09
2022-11-07T02:14:30.061Z,9.06
2022-11-07T02:16:56.882Z,9.13
2022-11-07T02:19:47.235Z,9.09
2022-11-07T02:22:28.395Z,9.07
2022-11-07T02:24:58.458Z,9.06
2022-11-07T02:27:28.800Z,9.06
2022-11-07T02:30:03.100Z,9.10
2022-11-07T02:32:29.782Z,9.12
2022-11-07T02:35:00.440Z,9.22
2022-11-07T02:37:30.975Z,9.23
2022-11-07T02:40:00.062Z,9.20
2022-11-07T02:42:43.099Z,9.25
2022-11-07T02:45:17.297Z,9.21
2022-11-07T02:47:43.610Z,9.28
2022-11-07T02:50:11.841Z,9.20
2022-11-07T02:52:38.462Z,9.25
2022-11-07T02:55:06.020Z,9.28
2022-11-07T02:57:32.871Z,9.32
2022-11-07T02:59:59.333Z,9.34
2022-11-07T03:02:26.200Z,9.34
2022-11-07T03:04:52.933Z,9.27
2022-11-07T03:07:19.576Z,9.28
2022-11-07T03:09:45.904Z,9.38
2022-11-07T03:12:12.250Z,9.43
2022-11-07T03:14:38.580Z,9.45
2022-11-07T03:17:04.915Z,9.50
2022-11-07T03:19:31.231Z,9.55
2022-11-07T03:21:57.506Z,9.56
2022-11-07T03:24:23.810Z,9.54
2022-11-07T03:26:50.152Z,9.62
2022-11-07T03:29:16.456Z,9.57
2022-11-07T03:31:42.747Z,9.66
2022-11-07T03:34:09.022Z,9.69
2022-11-07T03:36:35.336Z,9.66
2022-11-07T03:39:01.650Z,9.69
2022-11-07T03:41:28.032Z,9.67
2022-11-07T03:43:54.367Z,9.68
2022-11-07T03:46:20.660Z,9.73
2022-11-07T03:48:46.947Z,9.75
2022-11-07T03:51:13.325Z,9.72
2022-11-07T03:53:39.615Z,9.71
2022-11-07T03:56:08.591Z,9.68
2022-11-07T03:58:35.742Z,9.69
2022-11-07T04:01:03.034Z,9.72
2022-11-07T04:03:29.825Z,9.76
2022-11-07T04:05:56.486Z,9.81
2022-11-07T04:08:24.284Z,9.83
2022-11-07T04:10:50.649Z,9.82
2022-11-07T04:13:35.631Z,9.90
2022-11-07T04:16:20.389Z,9.89
2022-11-07T04:18:46.661Z,9.92
2022-11-07T04:21:12.992Z,9.90
2022-11-07T04:23:39.303Z,9.90
2022-11-07T04:26:24.469Z,9.80
2022-11-07T04:28:50.761Z,9.77
2022-11-07T04:31:17.035Z,9.72
2022-11-07T04:33:43.320Z,9.75
2022-11-07T04:36:09.662Z,9.82
2022-11-07T04:38:35.963Z,9.91
2022-11-07T04:41:04.127Z,9.95
2022-11-07T04:43:30.500Z,9.95
2022-11-07T04:45:57.139Z,10.03
2022-11-07T04:48:23.445Z,10.01
2022-11-07T04:50:49.888Z,10.06
2022-11-07T04:53:18.037Z,10.08
2022-11-07T04:55:44.483Z,10.10
2022-11-07T04:58:10.859Z,10.13
2022-11-07T05:00:37.205Z,10.10
2022-11-07T05:03:04.183Z,10.12
2022-11-07T05:05:30.546Z,10.16
2022-11-07T05:07:56.846Z,10.15
2022-11-07T05:10:26.614Z,10.09
2022-11-07T05:12:53.962Z,10.08
2022-11-07T05:15:20.691Z,10.03
2022-11-07T05:17:47.137Z,10.06
2022-11-07T05:20:28.678Z,10.06
2022-11-07T05:23:14.669Z,10.09
2022-11-07T05:25:46.686Z,10.11
2022-11-07T05:28:16.199Z,10.11
2022-11-07T05:30:44.219Z,10.16
2022-11-07T05:33:12.789Z,10.15
2022-11-07T05:35:39.532Z,10.17
2022-11-07T05:38:05.941Z,10.14
2022-11-07T05:40:34.745Z,10.19
2022-11-07T05:43:02.118Z,10.19
2022-11-07T05:45:30.353Z,10.18
2022-11-07T05:47:58.937Z,10.19
2022-11-07T05:50:25.548Z,10.19
2022-11-07T05:52:51.905Z,10.20
2022-11-07T05:55:18.593Z,10.17
2022-11-07T05:57:44.890Z,10.16
2022-11-07T06:00:12.093Z,10.07
2022-11-07T06:02:38.708Z,10.06
2022-11-07T06:05:05.539Z,10.05
2022-11-07T06:07:36.451Z,9.99
2022-11-07T06:10:04.764Z,10.04
2022-11-07T06:12:31.066Z,9.95
2022-11-07T06:14:57.434Z,9.93
2022-11-07T06:17:23.835Z,9.86
2022-11-07T06:19:50.156Z,9.85
2022-11-07T06:22:16.606Z,9.86
2022-11-07T06:24:42.949Z,9.80
2022-11-07T06:27:09.268Z,9.77
2022-11-07T06:29:35.567Z,9.77
2022-11-07T06:32:01.879Z,9.76
2022-11-07T06:34:28.199Z,9.69
2022-11-07T06:37:02.459Z,9.72
2022-11-07T06:39:29.168Z,9.77
2022-11-07T06:41:55.462Z,9.75
2022-11-07T06:44:21.743Z,9.76
2022-11-07T06:46:48.045Z,9.76
2022-11-07T06:49:15.187Z,9.73
2022-11-07T06:51:46.896Z,9.70
2022-11-07T06:54:14.394Z,9.74
2022-11-07T06:56:40.668Z,9.70
2022-11-07T06:59:07.266Z,9.76
2022-11-07T07:01:33.803Z,9.77
2022-11-07T07:04:00.831Z,9.80
2022-11-07T07:06:27.231Z,9.79
2022-11-07T07:08:54.487Z,9.86
2022-11-07T07:11:20.836Z,9.90
2022-11-07T07:13:47.185Z,9.91
2022-11-07T07:16:13.650Z,9.97
2022-11-07T07:18:39.993Z,9.94
2022-11-07T07:21:11.517Z,9.96
2022-11-07T07:23:38.902Z,9.92
2022-11-07T07:26:07.448Z,9.96
2022-11-07T07:28:33.776Z,10.04
2022-11-07T07:31:07.392Z,10.08
2022-11-07T07:33:33.746Z,10.13
2022-11-07T07:36:00.027Z,10.20
2022-11-07T07:38:26.321Z,10.28
2022-11-07T07:40:52.656Z,10.33
2022-11-07T07:43:19.239Z,10.39
2022-11-07T07:45:45.778Z,10.41
2022-11-07T07:48:12.134Z,10.45
2022-11-07T07:50:38.439Z,10.52
2022-11-07T07:53:08.883Z,10.49
2022-11-07T07:55:35.863Z,10.54
2022-11-07T07:58:02.175Z,10.54
2022-11-07T08:00:28.518Z,10.53
2022-11-07T08:03:07.170Z,10.55
2022-11-07T08:05:33.616Z,10.60
2022-11-07T08:07:59.946Z,10.67
2022-11-07T08:10:43.165Z,10.70
2022-11-07T08:13:09.859Z,10.85
2022-11-07T08:15:36.173Z,10.82
2022-11-07T08:18:04.133Z,10.80
2022-11-07T08:20:30.675Z,10.75
2022-11-07T08:23:14.834Z,10.76
2022-11-07T08:25:55.841Z,10.72
2022-11-07T08:28:25.270Z,10.73
2022-11-07T08:31:00.393Z,10.81
2022-11-07T08:33:27.576Z,10.85
2022-11-07T08:35:55.786Z,10.86
2022-11-07T08:38:22.781Z,10.88
2022-11-07T08:40:50.454Z,10.91
2022-11-07T08:43:18.161Z,10.90
2022-11-07T08:45:46.375Z,10.98
2022-11-07T08:48:13.189Z,11.01
2022-11-07T08:50:39.618Z,11.03
2022-11-07T08:53:06.713Z,11.06
2022-11-07T08:55:33.409Z,11.12
2022-11-07T08:58:01.087Z,11.21
2022-11-07T09:00:28.023Z,11.18
2022-11-07T09:03:30.836Z,11.16
2022-11-07T09:05:40.923Z,11.20
2022-11-07T09:08:07.548Z,11.27
2022-11-07T09:10:33.927Z,11.30
2022-11-07T09:13:00.290Z,11.30
2022-11-07T09:15:26.763Z,11.32
2022-11-07T09:17:53.398Z,11.35
2022-11-07T09:20:19.824Z,11.30
2022-11-07T09:22:46.267Z,11.29
2022-11-07T09:25:13.064Z,11.27
2022-11-07T09:27:39.518Z,11.37
2022-11-07T09:30:06.426Z,11.50
2022-11-07T09:32:45.017Z,11.52
2022-11-07T09:35:12.867Z,11.67
2022-11-07T09:37:40.226Z,11.76
2022-11-07T09:40:23.618Z,11.80
2022-11-07T09:43:08.226Z,11.84
2022-11-07T09:45:43.980Z,11.90
2022-11-07T09:48:19.741Z,11.91
2022-11-07T09:50:49.088Z,12.01
2022-11-07T09:53:28.321Z,12.00
2022-11-07T09:56:00.850Z,12.07
2022-11-07T09:58:34.671Z,12.19
2022-11-07T10:01:05.738Z,12.26
2022-11-07T10:03:37.929Z,12.26
2022-11-07T10:06:34.016Z,12.29
2022-11-07T10:09:18.551Z,12.40
2022-11-07T10:12:08.557Z,12.33
2022-11-07T10:15:08.582Z,12.28
2022-11-07T10:17:54.482Z,12.22
2022-11-07T10:20:33.087Z,12.32
2022-11-07T10:23:33.446Z,12.36
2022-11-07T10:26:08.041Z,12.27
2022-11-07T10:28:44.025Z,12.32
2022-11-07T10:31:12.900Z,12.34
2022-11-07T10:34:04.467Z,12.26
2022-11-07T10:36:32.765Z,12.21
2022-11-07T10:39:01.558Z,12.15
2022-11-07T10:41:31.543Z,12.07
2022-11-07T10:44:02.440Z,12.07
2022-11-07T10:46:38.479Z,12.12
2022-11-07T10:49:26.164Z,12.14
2022-11-07T10:51:53.737Z,12.13
2022-11-07T10:54:25.891Z,12.13
2022-11-07T10:57:19.696Z,12.13
2022-11-07T10:59:51.891Z,12.19
2022-11-07T11:02:25.691Z,12.19
2022-11-07T11:04:57.850Z,12.17
2022-11-07T11:07:36.461Z,12.18
2022-11-07T11:10:04.212Z,12.23
2022-11-07T11:12:34.749Z,12.32
2022-11-07T11:15:11.714Z,12.37
2022-11-07T11:17:38.496Z,12.37
2022-11-07T11:20:06.706Z,12.39
2022-11-07T11:22:41.979Z,12.35
2022-11-07T11:25:11.312Z,12.34
2022-11-07T11:27:39.043Z,12.32
2022-11-07T11:30:15.246Z,12.44
2022-11-07T11:33:17.431Z,12.51
2022-11-07T11:35:57.149Z,12.54
2022-11-07T11:38:52.986Z,12.54
2022-11-07T11:41:34.639Z,12.52
2022-11-07T11:44:18.239Z,12.52
2022-11-07T11:47:14.098Z,12.57
2022-11-07T11:49:47.487Z,12.54
2022-11-07T11:52:21.198Z,12.47
2022-11-07T11:54:50.039Z,12.37
2022-11-07T11:57:47.333Z,12.38
2022-11-07T12:00:18.391Z,12.34
2022-11-07T12:03:03.468Z,12.38
2022-11-07T12:05:49.782Z,12.47
2022-11-07T12:08:31.073Z,12.42
2022-11-07T12:11:06.172Z,12.38
2022-11-07T12:13:32.540Z,12.39
2022-11-07T12:16:26.522Z,12.36
2022-11-07T12:19:00.922Z,12.36
2022-11-07T12:21:37.208Z,12.31
2022-11-07T12:24:38.073Z,12.28
2022-11-07T12:27:10.431Z,12.26
2022-11-07T12:30:10.391Z,12.28
2022-11-07T12:32:54.604Z,12.26
2022-11-07T12:35:30.065Z,12.21
2022-11-07T12:38:14.386Z,12.26
2022-11-07T12:40:40.638Z,12.26
2022-11-07T12:43:34.564Z,12.14
2022-11-07T12:46:09.586Z,12.18
2022-11-07T12:48:54.750Z,12.26
2022-11-07T12:51:46.811Z,12.18
2022-11-07T12:54:38.487Z,12.17
2022-11-07T12:57:14.790Z,12.13
2022-11-07T12:59:48.353Z,12.18
2022-11-07T13:02:39.501Z,12.14
2022-11-07T13:05:15.117Z,12.17
2022-11-07T13:08:04.465Z,12.20
2022-11-07T13:10:49.263Z,12.20
2022-11-07T13:13:23.604Z,12.23
2022-11-07T13:16:14.153Z,12.25
2022-11-07T13:18:36.463Z,12.25
2022-11-07T13:21:05.899Z,12.27
2022-11-07T13:23:32.592Z,12.25
2022-11-07T13:26:03.975Z,12.26
2022-11-07T13:28:43.077Z,12.24
2022-11-07T13:31:38.707Z,12.28
2022-11-07T13:34:32.183Z,12.31
2022-11-07T13:37:03.988Z,12.37
2022-11-07T13:39:31.078Z,12.42
2022-11-07T13:41:59.420Z,12.41
2022-11-07T13:44:29.035Z,12.36
2022-11-07T13:47:02.817Z,12.29
2022-11-07T13:49:46.306Z,12.31
2022-11-07T13:52:41.972Z,12.32
2022-11-07T13:55:23.524Z,12.33
2022-11-07T13:57:56.232Z,12.38
2022-11-07T14:00:22.817Z,12.29
2022-11-07T14:02:51.508Z,12.11
2022-11-07T14:05:26.940Z,12.00
2022-11-07T14:08:27.167Z,11.97
2022-11-07T14:10:54.297Z,12.03
2022-11-07T14:13:41.252Z,12.04
2022-11-07T14:16:19.491Z,12.04
2022-11-07T14:18:51.750Z,12.04
2022-11-07T14:21:25.426Z,12.04
2022-11-07T14:23:52.211Z,12.09
2022-11-07T14:26:29.331Z,12.13
2022-11-07T14:28:57.677Z,12.10
2022-11-07T14:31:35.627Z,12.05
2022-11-07T14:34:15.368Z,11.98
2022-11-07T14:36:56.493Z,11.98
2022-11-07T14:39:25.613Z,11.95
2022-11-07T14:41:54.353Z,11.95
2022-11-07T14:44:36.377Z,12.06
2022-11-07T14:47:18.762Z,12.12
2022-11-07T14:49:47.999Z,12.10
2022-11-07T14:52:34.564Z,12.14
2022-11-07T14:55:45.513Z,12.10
2022-11-07T14:58:12.588Z,12.06
2022-11-07T15:00:39.671Z,11.98
2022-11-07T15:03:06.189Z,12.05
2022-11-07T15:05:41.808Z,12.01
2022-11-07T15:08:28.130Z,11.93
2022-11-07T15:11:21.358Z,11.91
2022-11-07T15:13:48.541Z,11.97
2022-11-07T15:16:18.496Z,11.96
2022-11-07T15:18:47.376Z,11.92
2022-11-07T15:21:36.672Z,11.91
2022-11-07T15:24:40.916Z,11.86
2022-11-07T15:27:13.144Z,11.76
2022-11-07T15:29:48.573Z,11.75
2022-11-07T15:32:20.601Z,11.74
2022-11-07T15:35:08.013Z,11.73
2022-11-07T15:37:36.716Z,11.71
2022-11-07T15:40:15.030Z,11.63
2022-11-07T15:42:41.598Z,11.61
2022-11-07T15:45:08.494Z,11.58
2022-11-07T15:47:34.957Z,11.62
2022-11-07T15:50:01.317Z,11.61
2022-11-07T15:52:27.627Z,11.57
2022-11-07T15:54:53.916Z,11.53
2022-11-07T15:57:20.554Z,11.52
2022-11-07T15:59:46.900Z,11.48
2022-11-07T16:02:16.524Z,11.43
2022-11-07T16:04:43.713Z,11.36
2022-11-07T16:07:18.534Z,11.37
2022-11-07T16:09:48.180Z,11.34
2022-11-07T16:12:17.514Z,11.33
2022-11-07T16:14:44.823Z,11.30
2022-11-07T16:17:19.234Z,11.32
2022-11-07T16:19:45.581Z,11.33
2022-11-07T16:22:13.389Z,11.27
2022-11-07T16:24:39.755Z,11.29
2022-11-07T16:27:06.257Z,11.39
2022-11-07T16:29:33.181Z,11.42
2022-11-07T16:31:59.473Z,11.46
2022-11-07T16:34:25.777Z,11.46
2022-11-07T16:36:52.118Z,11.48
2022-11-07T16:39:20.891Z,11.43
2022-11-07T16:41:48.039Z,11.36
2022-11-07T16:44:14.442Z,11.32
2022-11-07T16:46:41.606Z,11.30
2022-11-07T16:49:34.265Z,11.21
2022-11-07T16:52:00.598Z,11.22
2022-11-07T16:54:26.897Z,11.20
2022-11-07T16:56:53.404Z,11.20
2022-11-07T16:59:22.397Z,11.28
2022-11-07T17:01:50.217Z,11.26
2022-11-07T17:04:16.897Z,11.27
2022-11-07T17:06:47.339Z,11.33
2022-11-07T17:09:24.556Z,11.29
2022-11-07T17:11:50.953Z,11.36
2022-11-07T17:14:17.472Z,11.39
2022-11-07T17:16:48.146Z,11.34
2022-11-07T17:19:15.395Z,11.30
2022-11-07T17:21:46.181Z,11.43
2022-11-07T17:24:12.730Z,11.50
2022-11-07T17:26:39.022Z,11.61
2022-11-07T17:29:07.331Z,11.55
2022-11-07T17:31:33.716Z,11.61
2022-11-07T17:34:00.042Z,11.62
2022-11-07T17:36:36.698Z,11.69
2022-11-07T17:39:07.998Z,11.63
2022-11-07T17:41:34.342Z,11.70
2022-11-07T17:44:00.766Z,11.78
2022-11-07T17:46:30.780Z,11.76
2022-11-07T17:49:02.445Z,11.79
2022-11-07T17:51:28.844Z,11.86
2022-11-07T17:53:56.486Z,11.92
2022-11-07T17:56:25.858Z,11.95
2022-11-07T17:59:00.854Z,11.89
2022-11-07T18:01:34.145Z,11.85
2022-11-07T18:04:01.698Z,11.87
2022-11-07T18:06:28.640Z,11.86
2022-11-07T18:08:57.311Z,11.88
2022-11-07T18:11:26.497Z,11.93
2022-11-07T18:13:54.505Z,11.98
2022-11-07T18:16:23.861Z,11.98
2022-11-07T18:18:50.652Z,11.97
2022-11-07T18:21:17.623Z,11.95
2022-11-07T18:23:44.482Z,11.94
2022-11-07T18:26:13.557Z,12.03
2022-11-07T18:28:40.728Z,11.93
2022-11-07T18:31:16.439Z,11.91
2022-11-07T18:33:43.447Z,11.85
2022-11-07T18:36:16.972Z,11.85
2022-11-07T18:38:44.592Z,11.83
2022-11-07T18:41:14.333Z,11.85
2022-11-07T18:43:40.821Z,11.78
2022-11-07T18:46:14.376Z,11.83
2022-11-07T18:48:41.948Z,11.85
2022-11-07T18:51:11.320Z,11.90
2022-11-07T18:53:38.392Z,11.84
2022-11-07T18:56:07.086Z,11.71
2022-11-07T18:58:36.039Z,11.66
2022-11-07T19:01:12.540Z,11.56
2022-11-07T19:03:40.839Z,11.51
2022-11-07T19:06:08.974Z,11.56
2022-11-07T19:08:38.057Z,11.57
2022-11-07T19:11:08.933Z,11.56
2022-11-07T19:13:37.303Z,11.58
2022-11-07T19:16:05.743Z,11.66
2022-11-07T19:18:32.381Z,11.65
2022-11-07T19:20:58.795Z,11.69
2022-11-07T19:23:25.133Z,11.71
2022-11-07T19:25:51.681Z,11.70
2022-11-07T19:28:17.990Z,11.73
2022-11-07T19:30:44.576Z,11.77
2022-11-07T19:33:11.165Z,11.80
2022-11-07T19:35:39.578Z,11.75
2022-11-07T19:38:08.965Z,11.77
2022-11-07T19:40:38.776Z,11.84
2022-11-07T19:43:05.514Z,11.85
2022-11-07T19:45:31.947Z,11.85
2022-11-07T19:47:58.222Z,11.84
2022-11-07T19:50:24.506Z,11.81
2022-11-07T19:52:50.875Z,11.84
2022-11-07T19:55:17.804Z,11.82
2022-11-07T19:57:44.079Z,11.86
2022-11-07T20:00:11.700Z,11.85
2022-11-07T20:02:44.166Z,11.85
2022-11-07T20:05:11.179Z,11.85
2022-11-07T20:07:39.274Z,11.86
2022-11-07T20:10:08.527Z,11.83
2022-11-07T20:12:34.811Z,11.82
2022-11-07T20:15:01.116Z,11.86
2022-11-07T20:17:27.393Z,11.77
2022-11-07T20:19:53.691Z,11.73
2022-11-07T20:22:20.012Z,11.74
2022-11-07T20:24:46.286Z,11.66
2022-11-07T20:27:13.496Z,11.64
2022-11-07T20:29:39.843Z,11.62
2022-11-07T20:32:06.142Z,11.72
2022-11-07T20:34:32.515Z,11.64
2022-11-07T20:36:58.796Z,11.65
2022-11-07T20:39:25.122Z,11.61
2022-11-07T20:41:51.395Z,11.57
2022-11-07T20:44:17.779Z,11.58
2022-11-07T20:46:45.339Z,11.51
2022-11-07T20:49:13.911Z,11.53
2022-11-07T20:51:41.112Z,11.56
2022-11-07T20:54:08.944Z,11.64
2022-11-07T20:56:35.299Z,11.58
2022-11-07T20:59:01.629Z,11.52
2022-11-07T21:01:37.299Z,11.47
2022-11-07T21:04:10.362Z,11.43
2022-11-07T21:06:37.136Z,11.42
2022-11-07T21:09:05.082Z,11.37
2022-11-07T21:11:31.561Z,11.35
2022-11-07T21:13:57.922Z,11.40
2022-11-07T21:16:25.841Z,11.33
2022-11-07T21:18:53.498Z,11.30
2022-11-07T21:21:26.886Z,11.25
2022-11-07T21:23:54.468Z,11.28
2022-11-07T21:26:26.922Z,11.31
2022-11-07T21:28:54.405Z,11.36
2022-11-07T21:31:26.923Z,11.30
2022-11-07T21:33:53.293Z,11.37
2022-11-07T21:36:23.379Z,11.31
2022-11-07T21:38:50.043Z,11.32
2022-11-07T21:41:16.982Z,11.36
2022-11-07T21:43:43.902Z,11.31
2022-11-07T21:46:15.892Z,11.29
2022-11-07T21:48:43.037Z,11.28
2022-11-07T21:51:21.386Z,11.27
2022-11-07T21:53:48.517Z,11.21
2022-11-07T21:56:17.673Z,11.18
2022-11-07T21:58:44.572Z,11.20
2022-11-07T22:01:11.168Z,11.22
2022-11-07T22:04:04.610Z,11.16
2022-11-07T22:06:23.846Z,11.17
2022-11-07T22:08:53.882Z,11.24
2022-11-07T22:11:20.538Z,11.25
2022-11-07T22:13:47.009Z,11.29
2022-11-07T22:16:16.951Z,11.26
2022-11-07T22:18:43.726Z,11.29
2022-11-07T22:21:12.714Z,11.23
2022-11-07T22:23:39.897Z,11.29
2022-11-07T22:26:10.322Z,11.35
2022-11-07T22:28:38.525Z,11.38
2022-11-07T22:31:13.312Z,11.37
2022-11-07T22:33:39.583Z,11.38
2022-11-07T22:36:08.244Z,11.37
2022-11-07T22:38:35.948Z,11.35
2022-11-07T22:41:04.873Z,11.36
2022-11-07T22:43:31.219Z,11.35
2022-11-07T22:46:02.410Z,11.45
2022-11-07T22:48:29.329Z,11.45
2022-11-07T22:51:07.263Z,11.38
2022-11-07T22:53:34.296Z,11.44
2022-11-07T22:56:12.791Z,11.53
2022-11-07T22:58:39.898Z,11.49
2022-11-07T23:01:13.311Z,11.47
2022-11-07T23:03:39.598Z,11.56
2022-11-07T23:06:05.908Z,11.56
2022-11-07T23:08:36.035Z,11.52
2022-11-07T23:11:43.471Z,11.55
2022-11-07T23:14:00.221Z,11.55
2022-11-07T23:16:32.531Z,11.57
2022-11-07T23:19:01.735Z,11.56
2022-11-07T23:21:28.787Z,11.57
2022-11-07T23:23:57.427Z,11.63
2022-11-07T23:26:25.416Z,11.63
2022-11-07T23:28:52.562Z,11.65
2022-11-07T23:31:19.212Z,11.61
2022-11-07T23:33:45.655Z,11.64
2022-11-07T23:36:14.376Z,11.71
2022-11-07T23:38:41.650Z,11.69
2022-11-07T23:41:10.512Z,11.74
2022-11-07T23:43:36.854Z,11.74
2022-11-07T23:46:21.762Z,11.75
2022-11-07T23:49:11.899Z,11.79
2022-11-07T23:51:40.739Z,11.79
2022-11-07T23:54:25.629Z,11.80
2022-11-07T23:56:52.079Z,11.78
2022-11-07T23:59:37.029Z,11.78
